createdAt,value
2022-11-06T00:01:57.929Z,101189.19
2022-11-06T00:04:26.034Z,101175.56
2022-11-06T00:06:52.934Z,101183.91
2022-11-06T00:09:22.358Z,101182.13
2022-11-06T00:11:52.873Z,101176.91
2022-11-06T00:14:21.305Z,101184.03
2022-11-06T00:16:50.570Z,101174.94
2022-11-06T00:19:18.969Z,101176.69
2022-11-06T00:21:49.431Z,101180.16
2022-11-06T00:24:18.595Z,101177.63
2022-11-06T00:26:53.061Z,101182.75
2022-11-06T00:29:22.264Z,101171.78
2022-11-06T00:31:51.724Z,101175.59
2022-11-06T00:34:19.673Z,101182.03
2022-11-06T00:36:47.510Z,101175.34
2022-11-06T00:39:15.440Z,101181.03
2022-11-06T00:41:43.274Z,101168.50
2022-11-06T00:44:11.261Z,101177.91
2022-11-06T00:46:39.173Z,101182.16
2022-11-06T00:49:08.541Z,101170.91
2022-11-06T00:51:39.687Z,101176.13
2022-11-06T00:54:11.797Z,101167.34
2022-11-06T00:56:40.050Z,101169.38
2022-11-06T00:59:12.638Z,101168.00
2022-11-06T01:01:43.204Z,101170.03
2022-11-06T01:04:17.049Z,101166.56
2022-11-06T01:06:47.189Z,101154.94
2022-11-06T01:09:16.727Z,101163.63
2022-11-06T01:12:11.673Z,101157.44
2022-11-06T01:14:35.419Z,101153.53
2022-11-06T01:17:03.395Z,101162.50
2022-11-06T01:19:32.663Z,101153.72
2022-11-06T01:22:00.692Z,101144.13
2022-11-06T01:24:30.063Z,101160.84
2022-11-06T01:27:24.844Z,101144.91
2022-11-06T01:29:47.039Z,101147.84
2022-11-06T01:32:14.996Z,101144.59
2022-11-06T01:34:44.250Z,101142.97
2022-11-06T01:37:14.805Z,101140.19
2022-11-06T01:39:43.315Z,101134.81
2022-11-06T01:42:12.254Z,101136.06
2022-11-06T01:45:16.440Z,101143.34
2022-11-06T01:47:44.865Z,101131.63
2022-11-06T01:50:16.227Z,101133.72
2022-11-06T01:52:47.578Z,101136.63
2022-11-06T01:55:20.542Z,101132.72
2022-11-06T01:57:49.363Z,101131.84
2022-11-06T02:00:17.957Z,101126.34
2022-11-06T02:02:45.999Z,101120.72
2022-11-06T02:05:15.539Z,101121.13
2022-11-06T02:07:44.892Z,101119.63
2022-11-06T02:10:12.843Z,101115.91
2022-11-06T02:12:52.987Z,101115.53
2022-11-06T02:15:28.362Z,101111.03
2022-11-06T02:18:16.579Z,101101.94
2022-11-06T02:21:00.246Z,101104.03
2022-11-06T02:23:51.673Z,101101.69
2022-11-06T02:26:34.605Z,101103.63
2022-11-06T02:29:07.166Z,101113.31
2022-11-06T02:31:41.406Z,101093.53
2022-11-06T02:34:13.451Z,101101.38
2022-11-06T02:36:46.230Z,101100.22
2022-11-06T02:39:20.230Z,101105.34
2022-11-06T02:41:50.811Z,101102.50
2022-11-06T02:44:24.232Z,101095.47
2022-11-06T02:46:54.601Z,101096.16
2022-11-06T02:49:27.874Z,101093.59
2022-11-06T02:52:00.386Z,101095.56
2022-11-06T02:54:33.069Z,101086.69
2022-11-06T02:57:08.988Z,101090.09
2022-11-06T02:59:44.003Z,101098.59
2022-11-06T03:02:17.842Z,101093.69
2022-11-06T03:04:49.598Z,101091.28
2022-11-06T03:07:23.883Z,101094.19
2022-11-06T03:09:51.937Z,101092.66
2022-11-06T03:12:25.763Z,101085.47
2022-11-06T03:15:01.032Z,101072.09
2022-11-06T03:17:41.638Z,101093.31
2022-11-06T03:20:20.680Z,101088.19
2022-11-06T03:22:53.344Z,101086.16
2022-11-06T03:25:24.929Z,101087.00
2022-11-06T03:27:58.730Z,101084.22
2022-11-06T03:30:28.465Z,101088.78
2022-11-06T03:33:00.284Z,101099.44
2022-11-06T03:35:33.670Z,101094.72
2022-11-06T03:38:08.393Z,101093.22
2022-11-06T03:40:43.839Z,101096.97
2022-11-06T03:43:15.731Z,101088.56
2022-11-06T03:45:48.090Z,101087.00
2022-11-06T03:48:21.878Z,101093.44
2022-11-06T03:50:58.700Z,101096.97
2022-11-06T03:53:30.670Z,101096.59
2022-11-06T03:56:03.969Z,101084.22
2022-11-06T03:58:38.687Z,101081.34
2022-11-06T04:01:11.943Z,101079.84
2022-11-06T04:03:45.047Z,101085.16
2022-11-06T04:06:18.607Z,101089.19
2022-11-06T04:09:07.214Z,101086.00
2022-11-06T04:11:54.952Z,101081.97
2022-11-06T04:14:26.128Z,101087.16
2022-11-06T04:16:59.324Z,101077.22
2022-11-06T04:19:27.391Z,101097.59
2022-11-06T04:22:08.175Z,101090.06
2022-11-06T04:25:06.458Z,101070.53
2022-11-06T04:27:46.400Z,101089.09
2022-11-06T04:30:17.815Z,101082.44
2022-11-06T04:33:01.172Z,101095.88
2022-11-06T04:35:38.538Z,101081.50
2022-11-06T04:38:11.264Z,101069.19
2022-11-06T04:40:48.507Z,101090.66
2022-11-06T04:43:23.832Z,101090.59
2022-11-06T04:45:56.308Z,101097.34
2022-11-06T04:48:26.669Z,101090.13
2022-11-06T04:51:07.074Z,101091.38
2022-11-06T04:53:36.305Z,101091.19
2022-11-06T04:56:11.955Z,101086.56
2022-11-06T04:58:40.092Z,101077.13
2022-11-06T05:01:08.121Z,101077.31
2022-11-06T05:03:38.358Z,101075.13
2022-11-06T05:06:06.861Z,101071.78
2022-11-06T05:08:34.720Z,101065.25
2022-11-06T05:11:02.710Z,101063.16
2022-11-06T05:13:30.663Z,101064.94
2022-11-06T05:15:59.500Z,101060.81
2022-11-06T05:18:28.851Z,101046.53
2022-11-06T05:21:14.557Z,101041.41
2022-11-06T05:23:43.040Z,101036.97
2022-11-06T05:26:11.058Z,101031.66
2022-11-06T05:28:39.087Z,101014.94
2022-11-06T05:31:06.999Z,101013.34
2022-11-06T05:33:34.891Z,101014.34
2022-11-06T05:36:05.351Z,101017.06
2022-11-06T05:38:33.921Z,101014.19
2022-11-06T05:41:02.236Z,101009.72
2022-11-06T05:43:30.369Z,101015.34
2022-11-06T05:46:00.447Z,101027.06
2022-11-06T05:48:29.501Z,101018.53
2022-11-06T05:51:01.432Z,101017.44
2022-11-06T05:53:30.906Z,101025.44
2022-11-06T05:55:59.052Z,101024.03
2022-11-06T05:58:27.590Z,101016.03
2022-11-06T06:00:56.272Z,101015.56
2022-11-06T06:03:24.714Z,101019.91
2022-11-06T06:05:52.710Z,101014.66
2022-11-06T06:08:20.851Z,101009.66
2022-11-06T06:10:50.286Z,101001.69
2022-11-06T06:13:18.299Z,101004.41
2022-11-06T06:15:46.335Z,101012.16
2022-11-06T06:18:15.151Z,101005.41
2022-11-06T06:20:43.531Z,101000.97
2022-11-06T06:23:12.137Z,101008.44
2022-11-06T06:25:40.031Z,101002.44
2022-11-06T06:28:09.660Z,101010.03
2022-11-06T06:30:38.889Z,101009.50
2022-11-06T06:33:07.541Z,101025.66
2022-11-06T06:35:35.980Z,101025.22
2022-11-06T06:38:04.016Z,101026.31
2022-11-06T06:40:32.011Z,101031.13
2022-11-06T06:42:59.909Z,101032.59
2022-11-06T06:45:29.603Z,101028.16
2022-11-06T06:48:03.096Z,101026.72
2022-11-06T06:50:31.032Z,101027.78
2022-11-06T06:53:00.397Z,101023.59
2022-11-06T06:55:29.563Z,101028.63
2022-11-06T06:57:58.966Z,101034.81
2022-11-06T07:00:27.520Z,101030.16
2022-11-06T07:02:57.111Z,101043.38
2022-11-06T07:05:25.539Z,101039.16
2022-11-06T07:07:53.589Z,101044.03
2022-11-06T07:10:21.750Z,101041.13
2022-11-06T07:12:49.819Z,101044.56
2022-11-06T07:15:17.910Z,101043.72
2022-11-06T07:17:46.625Z,101036.94
2022-11-06T07:20:16.033Z,101043.31
2022-11-06T07:22:44.710Z,101033.72
2022-11-06T07:25:12.759Z,101035.97
2022-11-06T07:27:41.512Z,101030.25
2022-11-06T07:30:10.883Z,101028.69
2022-11-06T07:32:38.856Z,101030.75
2022-11-06T07:35:07.914Z,101026.97
2022-11-06T07:37:37.868Z,101026.97
2022-11-06T07:40:07.150Z,101029.69
2022-11-06T07:42:38.266Z,101019.75
2022-11-06T07:45:09.183Z,101009.41
2022-11-06T07:47:36.837Z,101012.34
2022-11-06T07:50:05.244Z,101021.41
2022-11-06T07:52:33.751Z,101014.47
2022-11-06T07:55:03.322Z,101017.56
2022-11-06T07:57:31.227Z,101014.63
2022-11-06T07:59:59.091Z,101016.72
2022-11-06T08:02:27.128Z,101006.59
2022-11-06T08:04:59.624Z,101016.63
2022-11-06T08:07:41.158Z,101016.31
2022-11-06T08:10:11.763Z,101022.19
2022-11-06T08:12:44.590Z,101018.53
2022-11-06T08:15:13.903Z,101016.09
2022-11-06T08:17:46.519Z,101014.22
2022-11-06T08:20:21.478Z,101010.69
2022-11-06T08:22:49.391Z,101008.66
2022-11-06T08:25:18.662Z,101002.56
2022-11-06T08:27:46.999Z,101005.94
2022-11-06T08:30:14.771Z,100999.94
2022-11-06T08:32:42.582Z,101000.22
2022-11-06T08:35:10.614Z,100999.91
2022-11-06T08:37:38.666Z,100993.25
2022-11-06T08:40:06.977Z,101000.09
2022-11-06T08:42:36.482Z,100990.19
2022-11-06T08:45:04.965Z,100975.88
2022-11-06T08:47:32.902Z,100979.34
2022-11-06T08:50:00.857Z,100978.81
2022-11-06T08:52:33.745Z,100982.97
2022-11-06T08:55:02.038Z,100982.28
2022-11-06T08:57:30.420Z,100987.63
2022-11-06T08:59:59.635Z,100988.84
2022-11-06T09:02:31.884Z,100987.19
2022-11-06T09:05:07.246Z,100984.34
2022-11-06T09:07:44.875Z,100969.56
2022-11-06T09:10:24.216Z,100964.75
2022-11-06T09:12:52.648Z,100968.44
2022-11-06T09:15:22.027Z,100949.84
2022-11-06T09:17:50.423Z,100951.75
2022-11-06T09:20:19.190Z,100944.31
2022-11-06T09:22:47.002Z,100938.34
2022-11-06T09:25:15.316Z,100934.06
2022-11-06T09:27:43.842Z,100928.97
2022-11-06T09:30:13.052Z,100920.91
2022-11-06T09:32:46.129Z,100927.06
2022-11-06T09:35:14.275Z,100930.66
2022-11-06T09:37:42.219Z,100919.22
2022-11-06T09:40:17.431Z,100910.56
2022-11-06T09:42:51.573Z,100907.84
2022-11-06T09:45:25.992Z,100910.19
2022-11-06T09:47:58.400Z,100907.31
2022-11-06T09:50:28.661Z,100903.81
2022-11-06T09:53:10.968Z,100903.56
2022-11-06T09:55:44.718Z,100894.19
2022-11-06T09:58:20.451Z,100903.06
2022-11-06T10:00:49.935Z,100892.69
2022-11-06T10:03:20.623Z,100904.91
2022-11-06T10:05:48.710Z,100899.16
2022-11-06T10:08:20.144Z,100905.16
2022-11-06T10:10:51.373Z,100902.31
2022-11-06T10:13:23.857Z,100903.47
2022-11-06T10:15:54.857Z,100900.75
2022-11-06T10:18:28.747Z,100906.91
2022-11-06T10:21:04.286Z,100898.22
2022-11-06T10:23:34.016Z,100900.25
2022-11-06T10:26:06.523Z,100905.03
2022-11-06T10:28:57.059Z,100905.38
2022-11-06T10:31:31.805Z,100893.78
2022-11-06T10:34:02.618Z,100904.50
2022-11-06T10:36:32.722Z,100891.53
2022-11-06T10:39:01.437Z,100880.16
2022-11-06T10:41:34.987Z,100885.09
2022-11-06T10:44:05.373Z,100882.88
2022-11-06T10:46:36.613Z,100876.44
2022-11-06T10:49:11.724Z,100879.63
2022-11-06T10:51:52.112Z,100877.91
2022-11-06T10:54:27.382Z,100868.22
2022-11-06T10:57:02.240Z,100868.22
2022-11-06T10:59:30.270Z,100855.63
2022-11-06T11:01:58.067Z,100847.44
2022-11-06T11:04:27.181Z,100838.22
2022-11-06T11:06:54.857Z,100840.28
2022-11-06T11:09:29.842Z,100831.59
2022-11-06T11:11:57.785Z,100824.75
2022-11-06T11:14:27.188Z,100818.13
2022-11-06T11:16:55.781Z,100836.53
2022-11-06T11:19:25.944Z,100815.22
2022-11-06T11:21:56.714Z,100813.19
2022-11-06T11:24:24.938Z,100819.13
2022-11-06T11:26:55.768Z,100809.09
2022-11-06T11:29:31.727Z,100797.34
2022-11-06T11:32:04.429Z,100804.69
2022-11-06T11:34:37.627Z,100791.22
2022-11-06T11:37:10.107Z,100785.75
2022-11-06T11:39:47.853Z,100790.53
2022-11-06T11:42:24.359Z,100792.91
2022-11-06T11:45:12.529Z,100780.31
2022-11-06T11:47:41.396Z,100767.53
2022-11-06T11:50:19.244Z,100763.97
2022-11-06T11:52:49.403Z,100770.59
2022-11-06T11:55:17.653Z,100756.63
2022-11-06T11:57:46.760Z,100759.84
2022-11-06T12:00:17.455Z,100759.69
2022-11-06T12:02:47.576Z,100743.66
2022-11-06T12:05:17.222Z,100743.16
2022-11-06T12:07:48.660Z,100731.59
2022-11-06T12:10:22.939Z,100733.28
2022-11-06T12:12:56.622Z,100720.34
2022-11-06T12:15:34.396Z,100720.66
2022-11-06T12:18:18.132Z,100710.78
2022-11-06T12:21:11.147Z,100696.06
2022-11-06T12:23:50.019Z,100691.09
2022-11-06T12:26:35.693Z,100675.47
2022-11-06T12:29:12.091Z,100695.34
2022-11-06T12:31:42.472Z,100697.50
2022-11-06T12:34:17.495Z,100697.06
2022-11-06T12:36:47.383Z,100698.69
2022-11-06T12:39:17.570Z,100686.56
2022-11-06T12:41:48.183Z,100677.16
2022-11-06T12:44:17.274Z,100674.53
2022-11-06T12:46:49.273Z,100668.72
2022-11-06T12:49:34.332Z,100668.75
2022-11-06T12:52:09.019Z,100666.66
2022-11-06T12:54:43.441Z,100654.19
2022-11-06T12:57:19.250Z,100654.84
2022-11-06T12:59:54.297Z,100658.28
2022-11-06T13:02:31.044Z,100657.34
2022-11-06T13:05:02.783Z,100649.09
2022-11-06T13:07:52.288Z,100647.88
2022-11-06T13:10:41.255Z,100646.28
2022-11-06T13:13:21.525Z,100653.06
2022-11-06T13:15:58.301Z,100649.28
2022-11-06T13:18:40.503Z,100640.56
2022-11-06T13:21:16.361Z,100636.13
2022-11-06T13:23:45.263Z,100632.53
2022-11-06T13:26:17.264Z,100635.59
2022-11-06T13:28:49.799Z,100626.22
2022-11-06T13:31:19.160Z,100622.84
2022-11-06T13:33:49.231Z,100613.16
2022-11-06T13:36:17.226Z,100628.25
2022-11-06T13:38:48.515Z,100615.16
2022-11-06T13:41:19.939Z,100607.03
2022-11-06T13:43:52.107Z,100630.69
2022-11-06T13:46:26.158Z,100612.38
2022-11-06T13:49:00.509Z,100609.19
2022-11-06T13:51:34.676Z,100604.06
2022-11-06T13:54:12.353Z,100608.94
2022-11-06T13:56:54.699Z,100611.16
2022-11-06T13:59:52.903Z,100611.94
2022-11-06T14:02:40.283Z,100604.59
2022-11-06T14:05:41.817Z,100601.75
2022-11-06T14:08:18.779Z,100611.75
2022-11-06T14:10:58.415Z,100616.88
2022-11-06T14:13:30.760Z,100605.94
2022-11-06T14:16:03.053Z,100591.44
2022-11-06T14:18:30.827Z,100594.44
2022-11-06T14:21:17.424Z,100608.41
2022-11-06T14:23:53.961Z,100597.78
2022-11-06T14:26:36.679Z,100599.50
2022-11-06T14:29:19.411Z,100600.84
2022-11-06T14:32:01.068Z,100600.34
2022-11-06T14:34:29.947Z,100593.41
2022-11-06T14:36:57.794Z,100595.94
2022-11-06T14:39:40.506Z,100593.03
2022-11-06T14:42:09.849Z,100593.69
2022-11-06T14:44:54.136Z,100580.41
2022-11-06T14:47:29.930Z,100586.22
2022-11-06T14:50:13.953Z,100575.69
2022-11-06T14:52:51.301Z,100587.94
2022-11-06T14:55:45.212Z,100586.06
2022-11-06T14:58:26.235Z,100585.78
2022-11-06T15:01:07.338Z,100582.72
2022-11-06T15:03:38.087Z,100570.59
2022-11-06T15:06:08.219Z,100578.75
2022-11-06T15:09:09.227Z,100564.50
2022-11-06T15:11:52.040Z,100582.63
2022-11-06T15:14:38.260Z,100574.09
2022-11-06T15:17:11.491Z,100570.72
2022-11-06T15:19:42.065Z,100570.75
2022-11-06T15:22:17.904Z,100592.75
2022-11-06T15:24:50.298Z,100582.53
2022-11-06T15:27:19.878Z,100574.91
2022-11-06T15:29:50.108Z,100568.44
2022-11-06T15:32:21.914Z,100568.09
2022-11-06T15:34:58.952Z,100563.47
2022-11-06T15:37:36.851Z,100551.03
2022-11-06T15:40:13.443Z,100564.28
2022-11-06T15:42:49.462Z,100565.66
2022-11-06T15:45:27.119Z,100551.13
2022-11-06T15:48:10.916Z,100559.84
2022-11-06T15:50:44.579Z,100549.91
2022-11-06T15:53:20.944Z,100551.13
2022-11-06T15:55:50.978Z,100544.44
2022-11-06T15:58:30.416Z,100549.22
2022-11-06T16:00:59.464Z,100542.09
2022-11-06T16:03:30.466Z,100533.75
2022-11-06T16:05:59.622Z,100533.59
2022-11-06T16:08:29.504Z,100522.09
2022-11-06T16:11:01.237Z,100518.53
2022-11-06T16:13:29.304Z,100516.66
2022-11-06T16:15:58.917Z,100514.31
2022-11-06T16:18:30.682Z,100510.63
2022-11-06T16:21:02.019Z,100500.13
2022-11-06T16:23:38.644Z,100491.75
2022-11-06T16:26:17.724Z,100498.47
2022-11-06T16:29:04.254Z,100494.47
2022-11-06T16:31:37.545Z,100484.13
2022-11-06T16:34:10.364Z,100488.06
2022-11-06T16:36:57.393Z,100477.47
2022-11-06T16:39:56.968Z,100485.44
2022-11-06T16:42:27.026Z,100465.16
2022-11-06T16:45:02.285Z,100464.31
2022-11-06T16:47:30.536Z,100471.31
2022-11-06T16:50:01.906Z,100484.09
2022-11-06T16:52:31.064Z,100474.09
2022-11-06T16:55:00.876Z,100471.19
2022-11-06T16:57:29.814Z,100466.94
2022-11-06T16:59:59.384Z,100470.88
2022-11-06T17:02:29.284Z,100460.44
2022-11-06T17:05:13.481Z,100471.03
2022-11-06T17:07:41.836Z,100463.06
2022-11-06T17:10:26.020Z,100464.09
2022-11-06T17:12:58.450Z,100463.06
2022-11-06T17:15:30.153Z,100462.56
2022-11-06T17:18:01.532Z,100484.97
2022-11-06T17:20:47.036Z,100483.34
2022-11-06T17:23:23.152Z,100452.69
2022-11-06T17:25:58.886Z,100454.72
2022-11-06T17:28:31.444Z,100459.41
2022-11-06T17:31:07.759Z,100455.00
2022-11-06T17:33:35.586Z,100451.06
2022-11-06T17:36:04.850Z,100447.63
2022-11-06T17:38:32.987Z,100444.72
2022-11-06T17:41:00.888Z,100456.72
2022-11-06T17:43:28.654Z,100439.78
2022-11-06T17:45:56.745Z,100434.34
2022-11-06T17:48:24.418Z,100437.06
2022-11-06T17:51:09.818Z,100443.81
2022-11-06T17:53:39.084Z,100418.75
2022-11-06T17:56:07.898Z,100420.06
2022-11-06T17:58:42.161Z,100411.09
2022-11-06T18:01:17.022Z,100409.03
2022-11-06T18:03:48.218Z,100404.81
2022-11-06T18:06:25.118Z,100405.50
2022-11-06T18:09:03.746Z,100396.53
2022-11-06T18:11:43.142Z,100392.78
2022-11-06T18:14:17.280Z,100393.28
2022-11-06T18:16:56.955Z,100389.88
2022-11-06T18:19:33.709Z,100388.88
2022-11-06T18:22:06.489Z,100375.97
2022-11-06T18:24:37.386Z,100378.00
2022-11-06T18:27:05.123Z,100375.66
2022-11-06T18:29:32.948Z,100369.06
2022-11-06T18:32:00.678Z,100366.44
2022-11-06T18:34:28.808Z,100358.78
2022-11-06T18:36:56.811Z,100356.22
2022-11-06T18:39:24.941Z,100365.56
2022-11-06T18:41:54.283Z,100357.03
2022-11-06T18:44:22.128Z,100361.78
2022-11-06T18:46:50.026Z,100354.94
2022-11-06T18:49:18.070Z,100356.78
2022-11-06T18:51:58.994Z,100368.50
2022-11-06T18:54:34.430Z,100365.78
2022-11-06T18:57:07.218Z,100358.91
2022-11-06T18:59:37.360Z,100357.31
2022-11-06T19:02:09.303Z,100355.94
2022-11-06T19:04:41.125Z,100348.66
2022-11-06T19:07:12.481Z,100342.69
2022-11-06T19:09:50.927Z,100347.44
2022-11-06T19:12:20.289Z,100343.56
2022-11-06T19:14:48.142Z,100341.03
2022-11-06T19:17:16.066Z,100343.75
2022-11-06T19:19:43.953Z,100346.06
2022-11-06T19:22:11.685Z,100339.72
2022-11-06T19:24:39.512Z,100341.31
2022-11-06T19:27:08.704Z,100342.22
2022-11-06T19:29:37.738Z,100326.84
2022-11-06T19:32:05.726Z,100340.75
2022-11-06T19:34:38.912Z,100330.56
2022-11-06T19:37:08.087Z,100330.31
2022-11-06T19:39:37.345Z,100324.69
2022-11-06T19:42:05.398Z,100321.81
2022-11-06T19:44:44.614Z,100327.59
2022-11-06T19:47:16.091Z,100335.91
2022-11-06T19:49:48.084Z,100345.94
2022-11-06T19:52:41.451Z,100323.91
2022-11-06T19:55:26.673Z,100331.97
2022-11-06T19:57:52.437Z,100337.56
2022-11-06T20:00:21.874Z,100329.22
2022-11-06T20:02:49.896Z,100332.03
2022-11-06T20:05:17.759Z,100323.22
2022-11-06T20:07:45.495Z,100334.59
2022-11-06T20:10:14.200Z,100321.94
2022-11-06T20:12:42.297Z,100323.78
2022-11-06T20:15:15.400Z,100305.78
2022-11-06T20:17:46.680Z,100314.72
2022-11-06T20:20:14.592Z,100315.09
2022-11-06T20:22:42.723Z,100311.22
2022-11-06T20:25:10.840Z,100307.63
2022-11-06T20:27:38.718Z,100297.78
2022-11-06T20:30:07.344Z,100310.66
2022-11-06T20:32:35.432Z,100303.41
2022-11-06T20:35:05.751Z,100307.66
2022-11-06T20:37:34.313Z,100303.41
2022-11-06T20:40:02.287Z,100309.06
2022-11-06T20:42:30.382Z,100311.94
2022-11-06T20:44:58.068Z,100309.31
2022-11-06T20:47:26.067Z,100316.28
2022-11-06T20:49:53.812Z,100304.75
2022-11-06T20:52:22.935Z,100311.41
2022-11-06T20:54:50.703Z,100309.59
2022-11-06T20:57:18.454Z,100303.78
2022-11-06T20:59:46.383Z,100300.09
2022-11-06T21:02:16.878Z,100304.81
2022-11-06T21:04:48.996Z,100298.00
2022-11-06T21:07:18.862Z,100311.06
2022-11-06T21:09:49.874Z,100310.72
2022-11-06T21:12:18.768Z,100302.94
2022-11-06T21:14:46.876Z,100305.16
2022-11-06T21:17:14.711Z,100314.16
2022-11-06T21:19:42.406Z,100315.19
2022-11-06T21:22:10.195Z,100305.50
2022-11-06T21:24:47.233Z,100323.16
2022-11-06T21:27:28.732Z,100309.22
2022-11-06T21:30:01.725Z,100307.38
2022-11-06T21:32:31.884Z,100308.06
2022-11-06T21:35:32.296Z,100306.34
2022-11-06T21:38:14.484Z,100312.09
2022-11-06T21:40:51.698Z,100296.72
2022-11-06T21:43:21.221Z,100296.53
2022-11-06T21:45:49.178Z,100290.28
2022-11-06T21:48:32.842Z,100305.56
2022-11-06T21:51:05.351Z,100302.34
2022-11-06T21:53:50.686Z,100298.78
2022-11-06T21:56:23.441Z,100312.03
2022-11-06T21:58:56.092Z,100310.16
2022-11-06T22:01:24.796Z,100306.94
2022-11-06T22:03:52.729Z,100300.47
2022-11-06T22:06:22.547Z,100301.66
2022-11-06T22:08:50.779Z,100307.44
2022-11-06T22:11:19.367Z,100330.88
2022-11-06T22:13:47.722Z,100315.78
2022-11-06T22:16:17.843Z,100312.34
2022-11-06T22:18:45.679Z,100311.00
2022-11-06T22:21:14.683Z,100305.72
2022-11-06T22:23:42.548Z,100299.22
2022-11-06T22:26:11.218Z,100304.53
2022-11-06T22:28:39.094Z,100314.34
2022-11-06T22:31:07.245Z,100316.06
2022-11-06T22:33:36.558Z,100297.06
2022-11-06T22:36:04.821Z,100308.59
2022-11-06T22:38:33.058Z,100321.50
2022-11-06T22:41:03.138Z,100320.28
2022-11-06T22:43:31.909Z,100302.22
2022-11-06T22:46:00.202Z,100308.22
2022-11-06T22:48:28.263Z,100314.84
2022-11-06T22:50:57.569Z,100315.66
2022-11-06T22:53:25.315Z,100304.06
2022-11-06T22:55:56.799Z,100321.69
2022-11-06T22:58:24.626Z,100311.88
2022-11-06T23:00:52.670Z,100321.03
2022-11-06T23:03:21.005Z,100317.88
2022-11-06T23:05:48.990Z,100321.03
2022-11-06T23:08:18.096Z,100315.59
2022-11-06T23:10:46.026Z,100336.81
2022-11-06T23:13:14.306Z,100326.47
2022-11-06T23:15:42.230Z,100323.75
2022-11-06T23:18:09.920Z,100326.81
2022-11-06T23:20:37.640Z,100317.38
2022-11-06T23:23:05.654Z,100320.31
2022-11-06T23:25:34.723Z,100324.53
2022-11-06T23:28:02.648Z,100327.13
2022-11-06T23:30:30.974Z,100336.13
2022-11-06T23:32:58.765Z,100337.88
2022-11-06T23:35:32.116Z,100335.34
2022-11-06T23:38:00.219Z,100331.75
2022-11-06T23:40:27.955Z,100337.81
2022-11-06T23:42:57.617Z,100331.56
2022-11-06T23:45:57.657Z,100338.72
2022-11-06T23:48:25.430Z,100343.06
2022-11-06T23:50:53.127Z,100330.31
2022-11-06T23:53:20.957Z,100341.28
2022-11-06T23:55:48.622Z,100345.31
2022-11-06T23:58:17.658Z,100332.81
